sensor_id;sensor_type;location;lat;lon;timestamp;temperature;humidity
67603;DHT22;54417;47.454;18.918;2024-02-15T00:01:14;4.83;85.86
67603;DHT22;54417;47.454;18.918;2024-02-15T00:06:23;4.97;85.72
67603;DHT22;54417;47.454;18.918;2024-02-15T00:11:28;4.79;86.03
67603;DHT22;54417;47.454;18.918;2024-02-15T00:16:36;4.80;86.21
67603;DHT22;54417;47.454;18.918;2024-02-15T00:21:42;4.88;86.06
67603;DHT22;54417;47.454;18.918;2024-02-15T00:26:47;4.94;86.10
67603;DHT22;54417;47.454;18.918;2024-02-15T00:31:51;5.04;85.87
67603;DHT22;54417;47.454;18.918;2024-02-15T00:36:54;4.97;85.88
67603;DHT22;54417;47.454;18.918;2024-02-15T00:41:59;5.00;86.07
67603;DHT22;54417;47.454;18.918;2024-02-15T00:47:03;5.15;86.01
67603;DHT22;54417;47.454;18.918;2024-02-15T00:52:12;5.08;85.27
67603;DHT22;54417;47.454;18.918;2024-02-15T00:57:22;5.05;85.41
67603;DHT22;54417;47.454;18.918;2024-02-15T01:02:25;5.12;85.92
67603;DHT22;54417;47.454;18.918;2024-02-15T01:07:35;5.31;86.00
67603;DHT22;54417;47.454;18.918;2024-02-15T01:12:44;5.36;85.43
67603;DHT22;54417;47.454;18.918;2024-02-15T01:17:48;5.38;85.72
67603;DHT22;54417;47.454;18.918;2024-02-15T01:22:56;5.42;85.69
67603;DHT22;54417;47.454;18.918;2024-02-15T01:28:01;5.59;85.73
67603;DHT22;54417;47.454;18.918;2024-02-15T01:33:05;5.63;85.94
67603;DHT22;54417;47.454;18.918;2024-02-15T01:38:14;5.58;85.90
67603;DHT22;54417;47.454;18.918;2024-02-15T01:43:24;5.39;85.67
67603;DHT22;54417;47.454;18.918;2024-02-15T01:48:32;5.40;86.20
67603;DHT22;54417;47.454;18.918;2024-02-15T01:53:36;5.42;86.44
67603;DHT22;54417;47.454;18.918;2024-02-15T01:58:46;5.29;86.76
67603;DHT22;54417;47.454;18.918;2024-02-15T02:03:50;5.25;86.76
67603;DHT22;54417;47.454;18.918;2024-02-15T02:08:54;5.24;87.25
67603;DHT22;54417;47.454;18.918;2024-02-15T02:14:00;5.01;87.94
67603;DHT22;54417;47.454;18.918;2024-02-15T02:19:08;4.76;88.50
67603;DHT22;54417;47.454;18.918;2024-02-15T02:24:13;4.42;88.97
67603;DHT22;54417;47.454;18.918;2024-02-15T02:29:23;4.23;89.44
67603;DHT22;54417;47.454;18.918;2024-02-15T02:34:31;4.06;89.85
67603;DHT22;54417;47.454;18.918;2024-02-15T02:39:40;3.87;90.65
67603;DHT22;54417;47.454;18.918;2024-02-15T02:44:46;3.70;91.54
67603;DHT22;54417;47.454;18.918;2024-02-15T02:49:55;3.64;92.10
67603;DHT22;54417;47.454;18.918;2024-02-15T02:55:03;3.63;92.59
67603;DHT22;54417;47.454;18.918;2024-02-15T03:00:11;3.60;92.91
67603;DHT22;54417;47.454;18.918;2024-02-15T03:05:22;3.66;92.58
67603;DHT22;54417;47.454;18.918;2024-02-15T03:10:31;3.84;92.46
67603;DHT22;54417;47.454;18.918;2024-02-15T03:15:41;3.91;92.39
67603;DHT22;54417;47.454;18.918;2024-02-15T03:20:45;3.98;92.21
67603;DHT22;54417;47.454;18.918;2024-02-15T03:25:55;4.02;91.84
67603;DHT22;54417;47.454;18.918;2024-02-15T03:31:05;4.28;91.27
67603;DHT22;54417;47.454;18.918;2024-02-15T03:36:15;4.43;90.73
67603;DHT22;54417;47.454;18.918;2024-02-15T03:41:20;4.36;90.67
67603;DHT22;54417;47.454;18.918;2024-02-15T03:46:30;4.33;90.95
67603;DHT22;54417;47.454;18.918;2024-02-15T03:51:39;4.36;91.15
67603;DHT22;54417;47.454;18.918;2024-02-15T03:56:47;4.42;90.94
67603;DHT22;54417;47.454;18.918;2024-02-15T04:02:00;4.46;90.88
67603;DHT22;54417;47.454;18.918;2024-02-15T04:07:05;4.52;90.63
67603;DHT22;54417;47.454;18.918;2024-02-15T04:12:09;4.60;90.62
67603;DHT22;54417;47.454;18.918;2024-02-15T04:17:14;4.70;90.39
67603;DHT22;54417;47.454;18.918;2024-02-15T04:22:19;4.73;89.39
67603;DHT22;54417;47.454;18.918;2024-02-15T04:27:23;4.69;88.96
67603;DHT22;54417;47.454;18.918;2024-02-15T04:32:28;4.69;89.10
67603;DHT22;54417;47.454;18.918;2024-02-15T04:37:35;4.71;88.76
67603;DHT22;54417;47.454;18.918;2024-02-15T04:42:39;4.81;88.88
67603;DHT22;54417;47.454;18.918;2024-02-15T04:47:52;4.81;88.67
67603;DHT22;54417;47.454;18.918;2024-02-15T04:53:01;4.88;88.89
67603;DHT22;54417;47.454;18.918;2024-02-15T04:58:04;5.00;88.79
67603;DHT22;54417;47.454;18.918;2024-02-15T05:03:14;5.04;88.09
67603;DHT22;54417;47.454;18.918;2024-02-15T05:08:22;5.02;88.33
67603;DHT22;54417;47.454;18.918;2024-02-15T05:13:26;5.14;88.28
67603;DHT22;54417;47.454;18.918;2024-02-15T05:18:36;5.25;87.92
67603;DHT22;54417;47.454;18.918;2024-02-15T05:23:47;5.28;87.86
67603;DHT22;54417;47.454;18.918;2024-02-15T05:28:51;5.18;88.41
67603;DHT22;54417;47.454;18.918;2024-02-15T05:33:56;5.19;87.76
67603;DHT22;54417;47.454;18.918;2024-02-15T05:39:00;5.21;87.58
67603;DHT22;54417;47.454;18.918;2024-02-15T05:44:10;5.28;87.51
67603;DHT22;54417;47.454;18.918;2024-02-15T05:49:20;5.31;87.53
67603;DHT22;54417;47.454;18.918;2024-02-15T05:54:26;5.38;87.59
67603;DHT22;54417;47.454;18.918;2024-02-15T05:59:29;5.45;86.99
67603;DHT22;54417;47.454;18.918;2024-02-15T06:04:34;5.63;86.77
67603;DHT22;54417;47.454;18.918;2024-02-15T06:09:38;5.76;86.19
67603;DHT22;54417;47.454;18.918;2024-02-15T06:14:47;5.93;85.88
67603;DHT22;54417;47.454;18.918;2024-02-15T06:19:59;5.91;86.09
67603;DHT22;54417;47.454;18.918;2024-02-15T06:25:08;6.07;85.13
67603;DHT22;54417;47.454;18.918;2024-02-15T06:30:12;6.18;84.90
67603;DHT22;54417;47.454;18.918;2024-02-15T06:35:43;6.31;84.04
67603;DHT22;54417;47.454;18.918;2024-02-15T06:41:04;6.52;83.76
67603;DHT22;54417;47.454;18.918;2024-02-15T06:46:07;6.48;83.91
67603;DHT22;54417;47.454;18.918;2024-02-15T06:51:19;6.59;83.46
67603;DHT22;54417;47.454;18.918;2024-02-15T06:56:22;6.75;83.11
67603;DHT22;54417;47.454;18.918;2024-02-15T07:01:31;6.75;83.08
67603;DHT22;54417;47.454;18.918;2024-02-15T07:06:42;6.90;82.59
67603;DHT22;54417;47.454;18.918;2024-02-15T07:11:50;6.94;82.93
67603;DHT22;54417;47.454;18.918;2024-02-15T07:16:58;6.92;82.46
67603;DHT22;54417;47.454;18.918;2024-02-15T07:22:03;7.04;82.15
67603;DHT22;54417;47.454;18.918;2024-02-15T07:27:07;7.10;82.26
67603;DHT22;54417;47.454;18.918;2024-02-15T07:32:12;7.18;82.54
67603;DHT22;54417;47.454;18.918;2024-02-15T07:37:17;7.34;82.54
67603;DHT22;54417;47.454;18.918;2024-02-15T07:42:25;7.27;82.80
67603;DHT22;54417;47.454;18.918;2024-02-15T07:47:29;7.18;83.21
67603;DHT22;54417;47.454;18.918;2024-02-15T07:52:35;7.34;83.28
67603;DHT22;54417;47.454;18.918;2024-02-15T07:57:40;7.45;83.08
67603;DHT22;54417;47.454;18.918;2024-02-15T08:02:48;7.62;82.54
67603;DHT22;54417;47.454;18.918;2024-02-15T08:07:58;7.81;82.18
67603;DHT22;54417;47.454;18.918;2024-02-15T08:13:07;7.75;81.63
67603;DHT22;54417;47.454;18.918;2024-02-15T08:18:16;7.89;81.84
67603;DHT22;54417;47.454;18.918;2024-02-15T08:23:26;8.02;81.39
67603;DHT22;54417;47.454;18.918;2024-02-15T08:28:35;8.41;80.34
67603;DHT22;54417;47.454;18.918;2024-02-15T08:33:43;8.54;80.20
67603;DHT22;54417;47.454;18.918;2024-02-15T08:38:54;8.57;78.67
67603;DHT22;54417;47.454;18.918;2024-02-15T08:44:03;8.83;78.47
67603;DHT22;54417;47.454;18.918;2024-02-15T08:49:16;9.12;76.87
67603;DHT22;54417;47.454;18.918;2024-02-15T08:54:26;9.43;77.38
67603;DHT22;54417;47.454;18.918;2024-02-15T08:59:29;9.22;74.96
67603;DHT22;54417;47.454;18.918;2024-02-15T09:08:47;9.44;74.88
67603;DHT22;54417;47.454;18.918;2024-02-15T09:13:50;9.64;75.44
67603;DHT22;54417;47.454;18.918;2024-02-15T09:18:54;9.88;74.06
67603;DHT22;54417;47.454;18.918;2024-02-15T09:24:04;10.15;73.25
67603;DHT22;54417;47.454;18.918;2024-02-15T09:29:13;10.22;72.20
67603;DHT22;54417;47.454;18.918;2024-02-15T09:34:22;10.40;72.21
67603;DHT22;54417;47.454;18.918;2024-02-15T09:39:27;10.78;72.04
67603;DHT22;54417;47.454;18.918;2024-02-15T09:44:35;11.01;71.35
67603;DHT22;54417;47.454;18.918;2024-02-15T09:49:44;11.15;69.58
67603;DHT22;54417;47.454;18.918;2024-02-15T09:54:49;11.47;69.13
67603;DHT22;54417;47.454;18.918;2024-02-15T09:59:58;11.21;69.24
67603;DHT22;54417;47.454;18.918;2024-02-15T10:05:07;11.26;69.07
67603;DHT22;54417;47.454;18.918;2024-02-15T10:10:16;11.19;68.72
67603;DHT22;54417;47.454;18.918;2024-02-15T10:15:29;11.31;69.86
67603;DHT22;54417;47.454;18.918;2024-02-15T10:20:34;11.25;68.61
67603;DHT22;54417;47.454;18.918;2024-02-15T10:25:47;11.65;68.52
67603;DHT22;54417;47.454;18.918;2024-02-15T10:30:57;11.90;67.64
67603;DHT22;54417;47.454;18.918;2024-02-15T10:36:15;12.02;66.64
67603;DHT22;54417;47.454;18.918;2024-02-15T10:41:25;12.01;65.23
67603;DHT22;54417;47.454;18.918;2024-02-15T10:46:34;11.98;65.04
67603;DHT22;54417;47.454;18.918;2024-02-15T10:51:44;12.35;65.48
67603;DHT22;54417;47.454;18.918;2024-02-15T10:56:49;11.94;64.27
67603;DHT22;54417;47.454;18.918;2024-02-15T11:01:59;12.10;65.13
67603;DHT22;54417;47.454;18.918;2024-02-15T11:07:07;12.11;64.28
67603;DHT22;54417;47.454;18.918;2024-02-15T11:12:20;12.34;65.47
67603;DHT22;54417;47.454;18.918;2024-02-15T11:22:55;12.53;63.17
67603;DHT22;54417;47.454;18.918;2024-02-15T11:33:28;12.41;62.60
67603;DHT22;54417;47.454;18.918;2024-02-15T11:38:33;12.58;63.57
67603;DHT22;54417;47.454;18.918;2024-02-15T11:43:49;12.20;62.69
67603;DHT22;54417;47.454;18.918;2024-02-15T11:49:06;12.37;62.97
67603;DHT22;54417;47.454;18.918;2024-02-15T11:54:16;12.66;64.25
67603;DHT22;54417;47.454;18.918;2024-02-15T11:59:28;12.75;62.18
67603;DHT22;54417;47.454;18.918;2024-02-15T12:04:46;12.65;63.28
67603;DHT22;54417;47.454;18.918;2024-02-15T12:10:07;12.87;62.22
67603;DHT22;54417;47.454;18.918;2024-02-15T12:15:35;13.03;61.85
67603;DHT22;54417;47.454;18.918;2024-02-15T12:20:57;12.76;61.79
67603;DHT22;54417;47.454;18.918;2024-02-15T12:26:06;12.86;61.86
67603;DHT22;54417;47.454;18.918;2024-02-15T12:31:11;12.52;63.06
67603;DHT22;54417;47.454;18.918;2024-02-15T12:36:22;12.34;63.78
67603;DHT22;54417;47.454;18.918;2024-02-15T12:41:30;12.08;62.78
67603;DHT22;54417;47.454;18.918;2024-02-15T12:46:39;12.21;63.47
67603;DHT22;54417;47.454;18.918;2024-02-15T12:51:51;12.28;63.95
67603;DHT22;54417;47.454;18.918;2024-02-15T12:57:07;12.42;63.72
67603;DHT22;54417;47.454;18.918;2024-02-15T13:02:12;12.44;62.73
67603;DHT22;54417;47.454;18.918;2024-02-15T13:07:23;12.52;62.49
67603;DHT22;54417;47.454;18.918;2024-02-15T13:12:26;12.49;61.91
67603;DHT22;54417;47.454;18.918;2024-02-15T13:17:37;12.34;62.30
67603;DHT22;54417;47.454;18.918;2024-02-15T13:22:47;12.24;61.18
67603;DHT22;54417;47.454;18.918;2024-02-15T13:27:56;12.32;61.36
67603;DHT22;54417;47.454;18.918;2024-02-15T13:33:00;11.93;60.21
67603;DHT22;54417;47.454;18.918;2024-02-15T13:38:11;12.18;61.81
67603;DHT22;54417;47.454;18.918;2024-02-15T13:43:17;12.31;60.08
67603;DHT22;54417;47.454;18.918;2024-02-15T13:48:27;12.44;61.57
67603;DHT22;54417;47.454;18.918;2024-02-15T13:53:38;12.34;61.09
67603;DHT22;54417;47.454;18.918;2024-02-15T13:58:47;12.46;62.41
67603;DHT22;54417;47.454;18.918;2024-02-15T14:03:56;12.38;62.88
67603;DHT22;54417;47.454;18.918;2024-02-15T14:09:06;12.34;63.05
67603;DHT22;54417;47.454;18.918;2024-02-15T14:14:15;12.27;62.92
67603;DHT22;54417;47.454;18.918;2024-02-15T14:19:24;12.42;61.69
67603;DHT22;54417;47.454;18.918;2024-02-15T14:24:35;12.37;62.42
67603;DHT22;54417;47.454;18.918;2024-02-15T14:29:45;12.29;63.41
67603;DHT22;54417;47.454;18.918;2024-02-15T14:35:09;12.11;64.62
67603;DHT22;54417;47.454;18.918;2024-02-15T14:40:20;12.00;63.65
67603;DHT22;54417;47.454;18.918;2024-02-15T14:45:28;12.04;64.89
67603;DHT22;54417;47.454;18.918;2024-02-15T14:50:33;12.04;64.07
67603;DHT22;54417;47.454;18.918;2024-02-15T14:55:43;12.04;64.47
67603;DHT22;54417;47.454;18.918;2024-02-15T15:00:53;11.80;64.53
67603;DHT22;54417;47.454;18.918;2024-02-15T15:06:01;11.69;64.91
67603;DHT22;54417;47.454;18.918;2024-02-15T15:11:23;11.73;67.18
67603;DHT22;54417;47.454;18.918;2024-02-15T15:17:01;11.53;66.25
67603;DHT22;54417;47.454;18.918;2024-02-15T15:22:10;11.59;66.29
67603;DHT22;54417;47.454;18.918;2024-02-15T15:27:20;11.39;67.60
67603;DHT22;54417;47.454;18.918;2024-02-15T15:32:30;11.16;67.23
67603;DHT22;54417;47.454;18.918;2024-02-15T15:37:36;11.07;68.42
67603;DHT22;54417;47.454;18.918;2024-02-15T15:42:41;10.88;68.71
67603;DHT22;54417;47.454;18.918;2024-02-15T15:47:50;10.75;68.95
67603;DHT22;54417;47.454;18.918;2024-02-15T15:52:59;10.59;69.21
67603;DHT22;54417;47.454;18.918;2024-02-15T15:58:09;10.68;69.10
67603;DHT22;54417;47.454;18.918;2024-02-15T16:03:18;10.59;70.19
67603;DHT22;54417;47.454;18.918;2024-02-15T16:08:21;10.40;70.73
67603;DHT22;54417;47.454;18.918;2024-02-15T16:13:31;10.40;70.44
67603;DHT22;54417;47.454;18.918;2024-02-15T16:18:35;10.36;70.53
67603;DHT22;54417;47.454;18.918;2024-02-15T16:23:40;10.17;71.04
67603;DHT22;54417;47.454;18.918;2024-02-15T16:28:50;10.10;72.06
67603;DHT22;54417;47.454;18.918;2024-02-15T16:33:53;9.91;72.16
67603;DHT22;54417;47.454;18.918;2024-02-15T16:38:57;9.77;72.91
67603;DHT22;54417;47.454;18.918;2024-02-15T16:44:08;9.61;73.53
67603;DHT22;54417;47.454;18.918;2024-02-15T16:49:17;9.50;73.95
67603;DHT22;54417;47.454;18.918;2024-02-15T16:54:21;9.37;74.38
67603;DHT22;54417;47.454;18.918;2024-02-15T16:59:28;9.24;75.31
67603;DHT22;54417;47.454;18.918;2024-02-15T17:04:34;9.15;75.88
67603;DHT22;54417;47.454;18.918;2024-02-15T17:09:38;9.12;76.07
67603;DHT22;54417;47.454;18.918;2024-02-15T17:14:47;9.16;76.13
67603;DHT22;54417;47.454;18.918;2024-02-15T17:19:51;9.18;76.36
67603;DHT22;54417;47.454;18.918;2024-02-15T17:25:00;9.16;76.85
67603;DHT22;54417;47.454;18.918;2024-02-15T17:30:10;9.27;76.61
67603;DHT22;54417;47.454;18.918;2024-02-15T17:35:20;9.31;76.52
67603;DHT22;54417;47.454;18.918;2024-02-15T17:40:29;9.37;76.76
67603;DHT22;54417;47.454;18.918;2024-02-15T17:45:39;9.34;76.94
67603;DHT22;54417;47.454;18.918;2024-02-15T17:50:48;9.37;77.09
67603;DHT22;54417;47.454;18.918;2024-02-15T17:55:57;9.40;76.83
67603;DHT22;54417;47.454;18.918;2024-02-15T18:01:09;9.40;76.65
67603;DHT22;54417;47.454;18.918;2024-02-15T18:06:18;9.31;76.62
67603;DHT22;54417;47.454;18.918;2024-02-15T18:11:26;9.13;77.05
67603;DHT22;54417;47.454;18.918;2024-02-15T18:16:32;9.18;77.05
67603;DHT22;54417;47.454;18.918;2024-02-15T18:21:40;9.02;77.79
67603;DHT22;54417;47.454;18.918;2024-02-15T18:26:44;9.08;77.73
67603;DHT22;54417;47.454;18.918;2024-02-15T18:31:49;9.08;78.00
67603;DHT22;54417;47.454;18.918;2024-02-15T18:36:58;9.00;78.08
67603;DHT22;54417;47.454;18.918;2024-02-15T18:42:07;8.93;78.59
67603;DHT22;54417;47.454;18.918;2024-02-15T18:47:17;8.93;78.66
67603;DHT22;54417;47.454;18.918;2024-02-15T18:52:26;8.93;79.11
67603;DHT22;54417;47.454;18.918;2024-02-15T18:57:35;8.52;80.06
67603;DHT22;54417;47.454;18.918;2024-02-15T19:02:45;8.47;80.76
67603;DHT22;54417;47.454;18.918;2024-02-15T19:07:54;8.31;81.02
67603;DHT22;54417;47.454;18.918;2024-02-15T19:13:05;8.29;81.44
67603;DHT22;54417;47.454;18.918;2024-02-15T19:18:10;8.21;81.42
67603;DHT22;54417;47.454;18.918;2024-02-15T19:23:19;8.07;81.93
67603;DHT22;54417;47.454;18.918;2024-02-15T19:28:28;8.00;82.37
67603;DHT22;54417;47.454;18.918;2024-02-15T19:33:37;7.89;82.66
67603;DHT22;54417;47.454;18.918;2024-02-15T19:38:54;7.81;82.88
67603;DHT22;54417;47.454;18.918;2024-02-15T19:43:58;7.76;83.22
67603;DHT22;54417;47.454;18.918;2024-02-15T19:49:08;7.81;83.49
67603;DHT22;54417;47.454;18.918;2024-02-15T19:54:11;7.86;83.39
67603;DHT22;54417;47.454;18.918;2024-02-15T19:59:21;7.90;83.39
67603;DHT22;54417;47.454;18.918;2024-02-15T20:04:26;7.99;83.38
67603;DHT22;54417;47.454;18.918;2024-02-15T20:09:35;8.04;83.23
67603;DHT22;54417;47.454;18.918;2024-02-15T20:14:52;8.00;82.58
67603;DHT22;54417;47.454;18.918;2024-02-15T20:20:02;7.96;82.89
67603;DHT22;54417;47.454;18.918;2024-02-15T20:25:15;7.99;82.86
67603;DHT22;54417;47.454;18.918;2024-02-15T20:30:23;8.13;82.41
67603;DHT22;54417;47.454;18.918;2024-02-15T20:35:33;8.20;82.46
67603;DHT22;54417;47.454;18.918;2024-02-15T20:40:37;8.14;82.38
67603;DHT22;54417;47.454;18.918;2024-02-15T20:45:40;8.12;82.73
67603;DHT22;54417;47.454;18.918;2024-02-15T20:50:45;8.16;82.88
67603;DHT22;54417;47.454;18.918;2024-02-15T20:55:54;8.23;82.88
67603;DHT22;54417;47.454;18.918;2024-02-15T21:00:57;8.17;82.66
67603;DHT22;54417;47.454;18.918;2024-02-15T21:06:07;8.21;82.58
67603;DHT22;54417;47.454;18.918;2024-02-15T21:11:18;8.26;81.95
67603;DHT22;54417;47.454;18.918;2024-02-15T21:16:22;8.24;82.07
67603;DHT22;54417;47.454;18.918;2024-02-15T21:21:27;8.19;82.10
67603;DHT22;54417;47.454;18.918;2024-02-15T21:26:31;8.29;82.02
67603;DHT22;54417;47.454;18.918;2024-02-15T21:31:40;8.27;81.73
67603;DHT22;54417;47.454;18.918;2024-02-15T21:36:51;8.31;81.23
67603;DHT22;54417;47.454;18.918;2024-02-15T21:42:00;8.33;80.95
67603;DHT22;54417;47.454;18.918;2024-02-15T21:47:04;8.31;80.98
67603;DHT22;54417;47.454;18.918;2024-02-15T21:52:14;8.34;80.78
67603;DHT22;54417;47.454;18.918;2024-02-15T21:57:22;8.37;80.99
67603;DHT22;54417;47.454;18.918;2024-02-15T22:02:26;8.33;80.72
67603;DHT22;54417;47.454;18.918;2024-02-15T22:07:31;8.29;81.14
67603;DHT22;54417;47.454;18.918;2024-02-15T22:12:40;8.30;81.12
67603;DHT22;54417;47.454;18.918;2024-02-15T22:17:44;8.30;81.40
67603;DHT22;54417;47.454;18.918;2024-02-15T22:22:54;8.31;81.48
67603;DHT22;54417;47.454;18.918;2024-02-15T22:27:57;8.24;81.40
67603;DHT22;54417;47.454;18.918;2024-02-15T22:33:06;8.27;81.22
67603;DHT22;54417;47.454;18.918;2024-02-15T22:38:15;8.26;80.56
67603;DHT22;54417;47.454;18.918;2024-02-15T22:43:24;8.21;80.56
67603;DHT22;54417;47.454;18.918;2024-02-15T22:48:27;8.26;80.38
67603;DHT22;54417;47.454;18.918;2024-02-15T22:53:38;8.24;80.22
67603;DHT22;54417;47.454;18.918;2024-02-15T22:58:43;8.23;80.13
67603;DHT22;54417;47.454;18.918;2024-02-15T23:03:47;8.29;79.74
67603;DHT22;54417;47.454;18.918;2024-02-15T23:08:52;8.26;79.32
67603;DHT22;54417;47.454;18.918;2024-02-15T23:14:00;8.27;79.82
67603;DHT22;54417;47.454;18.918;2024-02-15T23:19:09;8.31;78.94
67603;DHT22;54417;47.454;18.918;2024-02-15T23:24:21;8.23;79.61
67603;DHT22;54417;47.454;18.918;2024-02-15T23:29:25;8.20;79.35
67603;DHT22;54417;47.454;18.918;2024-02-15T23:34:34;8.24;79.38
67603;DHT22;54417;47.454;18.918;2024-02-15T23:39:44;8.24;79.22
67603;DHT22;54417;47.454;18.918;2024-02-15T23:45:05;8.17;79.33
67603;DHT22;54417;47.454;18.918;2024-02-15T23:50:15;8.06;79.93
67603;DHT22;54417;47.454;18.918;2024-02-15T23:55:25;7.90;80.51
